createdAt,value
2022-12-20T00:00:42.251Z,0
2022-12-20T00:01:42.259Z,0
2022-12-20T00:02:42.374Z,0
2022-12-20T00:03:42.245Z,0
2022-12-20T00:04:42.240Z,0
2022-12-20T00:05:42.287Z,0
2022-12-20T00:06:42.235Z,0
2022-12-20T00:07:42.251Z,0
2022-12-20T00:08:42.279Z,0
2022-12-20T00:09:42.237Z,0
2022-12-20T00:10:42.288Z,0
2022-12-20T00:11:42.343Z,0
2022-12-20T00:12:42.247Z,0
2022-12-20T00:13:42.237Z,0
2022-12-20T00:14:42.254Z,0
2022-12-20T00:15:42.237Z,0
2022-12-20T00:16:42.259Z,0
2022-12-20T00:17:42.383Z,0
2022-12-20T00:18:42.243Z,0
2022-12-20T00:19:42.246Z,0
2022-12-20T00:20:42.246Z,0
2022-12-20T00:21:42.244Z,0
2022-12-20T00:22:42.255Z,0
2022-12-20T00:23:42.259Z,0
2022-12-20T00:24:42.247Z,0
2022-12-20T00:25:42.262Z,0
2022-12-20T00:26:42.238Z,0
2022-12-20T00:27:42.257Z,0
2022-12-20T00:28:42.246Z,0
2022-12-20T00:29:42.238Z,0
2022-12-20T00:30:42.235Z,0
2022-12-20T00:31:42.298Z,0
2022-12-20T00:32:42.248Z,0
2022-12-20T00:33:42.279Z,0
2022-12-20T00:34:42.244Z,0
2022-12-20T00:35:42.228Z,0
2022-12-20T00:36:42.245Z,0
2022-12-20T00:37:42.278Z,0
2022-12-20T00:38:42.256Z,0
2022-12-20T00:39:42.238Z,0
2022-12-20T00:40:42.266Z,0
2022-12-20T00:41:42.241Z,0
2022-12-20T00:42:42.328Z,0
2022-12-20T00:43:42.255Z,0
2022-12-20T00:44:42.243Z,0
2022-12-20T00:45:42.242Z,0
2022-12-20T00:46:42.259Z,0
2022-12-20T00:47:42.261Z,0
2022-12-20T00:48:42.233Z,0
2022-12-20T00:49:42.244Z,0
2022-12-20T00:50:42.246Z,0
2022-12-20T00:51:42.262Z,0
2022-12-20T00:52:42.258Z,0
2022-12-20T00:53:42.243Z,0
2022-12-20T00:54:42.243Z,0
2022-12-20T00:55:42.268Z,0
2022-12-20T00:56:42.237Z,0
2022-12-20T00:57:42.259Z,0
2022-12-20T00:58:42.251Z,0
2022-12-20T00:59:42.242Z,0
2022-12-20T01:00:42.310Z,0
2022-12-20T01:01:42.452Z,0
2022-12-20T01:02:42.395Z,0
2022-12-20T01:03:42.353Z,0
2022-12-20T01:04:42.232Z,0
2022-12-20T01:05:42.238Z,0
2022-12-20T01:06:42.241Z,0
2022-12-20T01:07:42.258Z,0
2022-12-20T01:08:42.246Z,0
2022-12-20T01:09:42.236Z,0
2022-12-20T01:10:42.246Z,0
2022-12-20T01:11:42.242Z,0
2022-12-20T01:12:42.266Z,0
2022-12-20T01:13:42.247Z,0
2022-12-20T01:14:42.241Z,0
2022-12-20T01:15:42.231Z,0
2022-12-20T01:16:42.326Z,0
2022-12-20T01:17:42.252Z,0
2022-12-20T01:18:42.237Z,0
2022-12-20T01:19:42.356Z,0
2022-12-20T01:20:42.232Z,0
2022-12-20T01:21:42.249Z,0
2022-12-20T01:22:47.340Z,0
2022-12-20T01:23:42.240Z,0
2022-12-20T01:24:42.242Z,0
2022-12-20T01:25:42.260Z,0
2022-12-20T01:26:42.245Z,0
2022-12-20T01:27:42.246Z,0
2022-12-20T01:28:42.242Z,0
2022-12-20T01:29:42.242Z,0
2022-12-20T01:30:42.252Z,0
2022-12-20T01:31:42.329Z,0
2022-12-20T01:32:42.260Z,0
2022-12-20T01:33:42.237Z,0
2022-12-20T01:34:42.235Z,0
2022-12-20T01:35:42.243Z,0
2022-12-20T01:36:42.242Z,0
2022-12-20T01:37:42.253Z,0
2022-12-20T01:38:42.359Z,0
2022-12-20T01:39:42.240Z,0
2022-12-20T01:40:42.275Z,0
2022-12-20T01:41:42.239Z,0
2022-12-20T01:42:42.260Z,0
2022-12-20T01:43:42.248Z,0
2022-12-20T01:44:42.249Z,0
2022-12-20T01:45:42.281Z,0
2022-12-20T01:46:42.258Z,0
2022-12-20T01:47:42.253Z,0
2022-12-20T01:48:42.255Z,0
2022-12-20T01:49:42.247Z,0
2022-12-20T01:50:42.250Z,0
2022-12-20T01:51:42.237Z,0
2022-12-20T01:52:42.250Z,0
2022-12-20T01:53:42.242Z,0
2022-12-20T01:54:42.243Z,0
2022-12-20T01:55:42.254Z,0
2022-12-20T01:56:42.241Z,0
2022-12-20T01:57:42.280Z,0
2022-12-20T01:58:42.241Z,0
2022-12-20T01:59:42.246Z,0
2022-12-20T02:00:42.292Z,0
2022-12-20T02:01:42.363Z,0
2022-12-20T02:02:42.379Z,0
2022-12-20T02:03:42.315Z,0
2022-12-20T02:04:42.240Z,0
2022-12-20T02:05:42.244Z,0
2022-12-20T02:06:42.248Z,0
2022-12-20T02:07:42.269Z,0
2022-12-20T02:08:42.311Z,0
2022-12-20T02:09:42.225Z,0
2022-12-20T02:10:42.293Z,0
2022-12-20T02:11:42.262Z,0
2022-12-20T02:12:42.251Z,0
2022-12-20T02:13:42.226Z,0
2022-12-20T02:14:42.250Z,0
2022-12-20T02:15:42.225Z,0
2022-12-20T02:16:42.318Z,0
2022-12-20T02:17:42.263Z,0
2022-12-20T02:18:42.236Z,0
2022-12-20T02:19:42.256Z,0
2022-12-20T02:20:42.238Z,0
2022-12-20T02:21:42.227Z,0
2022-12-20T02:22:42.250Z,0
2022-12-20T02:23:42.229Z,0
2022-12-20T02:24:42.227Z,0
2022-12-20T02:25:42.249Z,0
2022-12-20T02:26:42.254Z,0
2022-12-20T02:27:42.242Z,0
2022-12-20T02:28:42.231Z,0
2022-12-20T02:29:42.241Z,0
2022-12-20T02:30:42.247Z,0
2022-12-20T02:31:42.327Z,0
2022-12-20T02:32:42.260Z,0
2022-12-20T02:33:42.230Z,0
2022-12-20T02:34:42.234Z,0
2022-12-20T02:35:42.243Z,0
2022-12-20T02:36:42.240Z,0
2022-12-20T02:37:42.249Z,0
2022-12-20T02:38:42.237Z,0
2022-12-20T02:39:42.228Z,0
2022-12-20T02:40:42.269Z,0
2022-12-20T02:41:42.249Z,0
2022-12-20T02:42:42.255Z,0
2022-12-20T02:43:42.243Z,0
2022-12-20T02:44:42.230Z,0
2022-12-20T02:45:42.274Z,0
2022-12-20T02:46:42.230Z,0
2022-12-20T02:47:42.263Z,0
2022-12-20T02:48:42.248Z,0
2022-12-20T02:49:42.247Z,0
2022-12-20T02:50:42.243Z,0
2022-12-20T02:51:42.238Z,0
2022-12-20T02:52:42.839Z,0
2022-12-20T02:53:42.966Z,0
2022-12-20T02:54:42.235Z,0
2022-12-20T02:55:42.261Z,0
2022-12-20T02:56:42.271Z,0
2022-12-20T02:57:42.262Z,0
2022-12-20T02:58:42.238Z,0
2022-12-20T02:59:42.316Z,0
2022-12-20T03:00:42.229Z,0
2022-12-20T03:01:42.447Z,0
2022-12-20T03:02:42.429Z,0
2022-12-20T03:03:42.331Z,0
2022-12-20T03:04:42.238Z,0
2022-12-20T03:05:42.230Z,0
2022-12-20T03:06:42.234Z,0
2022-12-20T03:07:42.257Z,0
2022-12-20T03:08:42.241Z,0
2022-12-20T03:09:42.244Z,0
2022-12-20T03:10:42.284Z,0
2022-12-20T03:11:42.249Z,0
2022-12-20T03:12:42.251Z,0
2022-12-20T03:13:42.252Z,0
2022-12-20T03:14:42.242Z,0
2022-12-20T03:15:42.274Z,0
2022-12-20T03:16:42.307Z,0
2022-12-20T03:17:42.269Z,0
2022-12-20T03:18:42.316Z,0
2022-12-20T03:19:42.294Z,0
2022-12-20T03:20:42.237Z,0
2022-12-20T03:21:42.264Z,0
2022-12-20T03:22:42.287Z,0
2022-12-20T03:23:42.234Z,0
2022-12-20T03:24:42.227Z,0
2022-12-20T03:25:42.274Z,0
2022-12-20T03:26:42.270Z,0
2022-12-20T03:27:42.267Z,0
2022-12-20T03:28:42.224Z,0
2022-12-20T03:29:42.243Z,0
2022-12-20T03:30:42.369Z,0
2022-12-20T03:31:42.235Z,0
2022-12-20T03:32:42.244Z,0
2022-12-20T03:33:42.227Z,0
2022-12-20T03:34:42.259Z,0
2022-12-20T03:35:42.252Z,0
2022-12-20T03:36:42.261Z,0
2022-12-20T03:37:42.264Z,0
2022-12-20T03:38:42.226Z,0
2022-12-20T03:39:42.233Z,0
2022-12-20T03:40:42.283Z,0
2022-12-20T03:41:42.267Z,0
2022-12-20T03:42:42.275Z,0
2022-12-20T03:43:42.255Z,0
2022-12-20T03:44:42.329Z,0
2022-12-20T03:45:42.259Z,0
2022-12-20T03:46:42.355Z,0
2022-12-20T03:47:42.258Z,0
2022-12-20T03:48:42.265Z,0
2022-12-20T03:49:42.235Z,0
2022-12-20T03:50:42.249Z,0
2022-12-20T03:51:42.295Z,0
2022-12-20T03:52:42.285Z,0
2022-12-20T03:53:42.253Z,0
2022-12-20T03:54:42.299Z,0
2022-12-20T03:55:45.360Z,0
2022-12-20T03:56:42.281Z,0
2022-12-20T03:57:42.356Z,0
2022-12-20T03:58:42.246Z,0
2022-12-20T03:59:42.255Z,0
2022-12-20T04:00:42.284Z,0
2022-12-20T04:01:42.488Z,0
2022-12-20T04:02:42.430Z,0
2022-12-20T04:03:42.302Z,0
2022-12-20T04:04:42.265Z,0
2022-12-20T04:05:42.243Z,0
2022-12-20T04:06:42.416Z,0
2022-12-20T04:07:42.357Z,0
2022-12-20T04:08:42.275Z,0
2022-12-20T04:09:42.275Z,0
2022-12-20T04:10:42.253Z,0
2022-12-20T04:11:42.314Z,0
2022-12-20T04:12:42.315Z,0
2022-12-20T04:13:42.289Z,0
2022-12-20T04:14:42.262Z,0
2022-12-20T04:15:42.464Z,0
2022-12-20T04:16:42.328Z,0
2022-12-20T04:17:42.358Z,0
2022-12-20T04:18:42.245Z,0
2022-12-20T04:19:42.231Z,0
2022-12-20T04:20:42.244Z,0
2022-12-20T04:21:42.251Z,0
2022-12-20T04:22:42.256Z,0
2022-12-20T04:23:42.252Z,0
2022-12-20T04:24:42.236Z,0
2022-12-20T04:25:42.264Z,0
2022-12-20T04:26:42.235Z,0
2022-12-20T04:27:42.295Z,0
2022-12-20T04:28:42.250Z,0
2022-12-20T04:29:42.290Z,0
2022-12-20T04:30:42.253Z,0
2022-12-20T04:31:42.371Z,0
2022-12-20T04:32:42.254Z,0
2022-12-20T04:33:42.245Z,0
2022-12-20T04:34:42.240Z,0
2022-12-20T04:35:42.269Z,0
2022-12-20T04:36:42.231Z,0
2022-12-20T04:37:42.270Z,0
2022-12-20T04:38:42.267Z,0
2022-12-20T04:39:42.250Z,0
2022-12-20T04:40:42.240Z,0
2022-12-20T04:41:42.237Z,0
2022-12-20T04:42:42.252Z,0
2022-12-20T04:43:42.223Z,0
2022-12-20T04:44:42.232Z,0
2022-12-20T04:45:42.228Z,0
2022-12-20T04:46:42.304Z,0
2022-12-20T04:47:42.292Z,0
2022-12-20T04:48:57.294Z,0
2022-12-20T04:49:42.229Z,0
2022-12-20T04:50:42.228Z,0
2022-12-20T04:51:42.245Z,0
2022-12-20T04:52:47.696Z,0
2022-12-20T04:53:42.243Z,0
2022-12-20T04:54:42.256Z,0
2022-12-20T04:55:42.266Z,0
2022-12-20T04:56:42.244Z,0
2022-12-20T04:57:42.253Z,0
2022-12-20T04:58:42.241Z,0
2022-12-20T04:59:42.242Z,0
2022-12-20T05:00:42.241Z,0
2022-12-20T05:01:42.276Z,0
2022-12-20T05:02:42.370Z,0
2022-12-20T05:03:42.277Z,0
2022-12-20T05:04:42.241Z,0
2022-12-20T05:05:42.240Z,0
2022-12-20T05:06:42.237Z,0
2022-12-20T05:07:42.266Z,0
2022-12-20T05:08:42.257Z,0
2022-12-20T05:09:42.243Z,0
2022-12-20T05:10:42.271Z,0
2022-12-20T05:11:42.231Z,0
2022-12-20T05:12:42.273Z,0
2022-12-20T05:13:42.300Z,0
2022-12-20T05:14:42.235Z,0
2022-12-20T05:15:42.335Z,0
2022-12-20T05:16:42.343Z,0
2022-12-20T05:17:42.281Z,0
2022-12-20T05:18:48.404Z,0
2022-12-20T05:19:42.242Z,0
2022-12-20T05:20:42.244Z,0
2022-12-20T05:21:42.258Z,0
2022-12-20T05:22:42.256Z,0
2022-12-20T05:23:42.245Z,0
2022-12-20T05:24:42.243Z,0
2022-12-20T05:25:42.249Z,0
2022-12-20T05:26:42.274Z,0
2022-12-20T05:27:42.266Z,0
2022-12-20T05:28:42.243Z,0
2022-12-20T05:29:42.245Z,0
2022-12-20T05:30:42.255Z,0
2022-12-20T05:31:42.375Z,0
2022-12-20T05:32:42.253Z,0
2022-12-20T05:33:42.269Z,0
2022-12-20T05:34:42.275Z,0
2022-12-20T05:35:42.258Z,0
2022-12-20T05:36:42.253Z,0
2022-12-20T05:37:42.254Z,0
2022-12-20T05:38:42.262Z,0
2022-12-20T05:39:42.224Z,0
2022-12-20T05:40:42.265Z,0
2022-12-20T05:41:42.247Z,0
2022-12-20T05:42:42.264Z,0
2022-12-20T05:43:42.226Z,0
2022-12-20T05:44:42.231Z,0
2022-12-20T05:45:42.238Z,0
2022-12-20T05:46:42.265Z,0
2022-12-20T05:47:42.255Z,0
2022-12-20T05:48:42.241Z,0
2022-12-20T05:49:42.236Z,0
2022-12-20T05:50:42.228Z,0
2022-12-20T05:51:42.232Z,0
2022-12-20T05:52:42.252Z,0
2022-12-20T05:53:42.257Z,0
2022-12-20T05:54:42.328Z,0
2022-12-20T05:55:42.256Z,0
2022-12-20T05:56:42.227Z,0
2022-12-20T05:57:42.248Z,0
2022-12-20T05:58:42.237Z,0
2022-12-20T05:59:42.235Z,0
2022-12-20T06:00:42.256Z,0
2022-12-20T06:01:42.328Z,0
2022-12-20T06:02:42.479Z,0
2022-12-20T06:03:42.351Z,0
2022-12-20T06:04:42.230Z,0
2022-12-20T06:05:42.224Z,0
2022-12-20T06:06:42.241Z,0
2022-12-20T06:07:42.262Z,0
2022-12-20T06:08:42.300Z,0
2022-12-20T06:09:42.252Z,0
2022-12-20T06:10:42.315Z,0
2022-12-20T06:11:42.236Z,0
2022-12-20T06:12:42.254Z,0
2022-12-20T06:13:42.331Z,0
2022-12-20T06:14:42.243Z,0
2022-12-20T06:15:42.243Z,0
2022-12-20T06:16:42.289Z,0
2022-12-20T06:17:42.283Z,0
2022-12-20T06:18:42.236Z,0
2022-12-20T06:19:42.239Z,0
2022-12-20T06:20:42.236Z,0
2022-12-20T06:21:42.238Z,0
2022-12-20T06:22:42.265Z,0
2022-12-20T06:23:42.248Z,0
2022-12-20T06:24:47.879Z,0
2022-12-20T06:25:42.261Z,0
2022-12-20T06:26:42.251Z,0
2022-12-20T06:27:42.273Z,0
2022-12-20T06:28:42.242Z,0
2022-12-20T06:29:42.245Z,0
2022-12-20T06:30:42.231Z,0
2022-12-20T06:31:42.278Z,0
2022-12-20T06:32:42.264Z,0
2022-12-20T06:33:42.240Z,0
2022-12-20T06:34:42.238Z,0
2022-12-20T06:35:42.234Z,0
2022-12-20T06:36:42.240Z,0
2022-12-20T06:37:42.263Z,0
2022-12-20T06:38:42.241Z,0
2022-12-20T06:39:42.243Z,0
2022-12-20T06:40:42.339Z,0
2022-12-20T06:41:42.233Z,0
2022-12-20T06:42:42.260Z,0
2022-12-20T06:43:42.258Z,0
2022-12-20T06:44:42.241Z,0
2022-12-20T06:45:42.757Z,0
2022-12-20T06:46:42.321Z,0
2022-12-20T06:47:42.254Z,0
2022-12-20T06:48:42.238Z,0
2022-12-20T06:49:42.252Z,0
2022-12-20T06:50:42.239Z,0
2022-12-20T06:51:42.237Z,0
2022-12-20T06:52:42.246Z,0.01
2022-12-20T06:53:42.229Z,0.01
2022-12-20T06:54:42.237Z,0.01
2022-12-20T06:55:42.275Z,0.01
2022-12-20T06:56:42.237Z,0.01
2022-12-20T06:57:42.257Z,0.01
2022-12-20T06:58:42.237Z,0.02
2022-12-20T06:59:42.232Z,0.02
2022-12-20T07:00:42.249Z,0.02
2022-12-20T07:01:42.393Z,0.02
2022-12-20T07:02:42.361Z,0.03
2022-12-20T07:03:42.247Z,0.03
2022-12-20T07:04:42.267Z,0.03
2022-12-20T07:05:42.227Z,0.04
2022-12-20T07:06:42.309Z,0.04
2022-12-20T07:07:45.050Z,0.05
2022-12-20T07:08:42.233Z,0.05
2022-12-20T07:09:42.227Z,0.06
2022-12-20T07:10:42.256Z,0.06
2022-12-20T07:11:42.232Z,0.07
2022-12-20T07:12:47.363Z,0.07
2022-12-20T07:13:42.238Z,0.08
2022-12-20T07:14:42.267Z,0.09
2022-12-20T07:15:42.232Z,0.1
2022-12-20T07:16:42.395Z,0.1
2022-12-20T07:17:42.263Z,0.11
2022-12-20T07:18:42.254Z,0.12
2022-12-20T07:19:48.673Z,0.12
2022-12-20T07:20:42.251Z,0.13
2022-12-20T07:21:42.230Z,0.14
2022-12-20T07:22:42.249Z,0.14
2022-12-20T07:23:42.238Z,0.15
2022-12-20T07:24:42.238Z,0.15
2022-12-20T07:25:42.270Z,0.16
2022-12-20T07:26:42.247Z,0.17
2022-12-20T07:27:42.273Z,0.17
2022-12-20T07:28:42.227Z,0.18
2022-12-20T07:29:42.277Z,0.18
2022-12-20T07:30:42.239Z,0.19
2022-12-20T07:31:42.308Z,0.2
2022-12-20T07:32:42.267Z,0.2
2022-12-20T07:33:42.245Z,0.21
2022-12-20T07:34:42.238Z,0.21
2022-12-20T07:35:42.243Z,0.21
2022-12-20T07:36:42.246Z,0.21
2022-12-20T07:37:42.353Z,0.21
2022-12-20T07:38:42.233Z,0.21
2022-12-20T07:39:42.268Z,0.21
2022-12-20T07:40:42.281Z,0.22
2022-12-20T07:41:42.270Z,0.23
2022-12-20T07:42:48.227Z,0.23
2022-12-20T07:43:42.267Z,0.24
2022-12-20T07:44:42.245Z,0.25
2022-12-20T07:45:42.313Z,0.25
2022-12-20T07:46:42.280Z,0.27
2022-12-20T07:47:42.276Z,0.28
2022-12-20T07:48:42.250Z,0.3
2022-12-20T07:49:42.229Z,0.32
2022-12-20T07:50:42.265Z,0.32
2022-12-20T07:51:42.240Z,0.34
2022-12-20T07:52:42.263Z,0.36
2022-12-20T07:53:42.254Z,0.37
2022-12-20T07:54:42.230Z,0.4
2022-12-20T07:55:42.287Z,0.4
2022-12-20T07:56:42.260Z,0.42
2022-12-20T07:57:42.257Z,0.46
2022-12-20T07:58:42.241Z,0.48
2022-12-20T07:59:42.243Z,0.48
2022-12-20T08:00:42.255Z,0.67
2022-12-20T08:01:42.358Z,0.73
2022-12-20T08:02:42.492Z,0.82
2022-12-20T08:03:42.298Z,0.76
2022-12-20T08:04:42.242Z,0.69
2022-12-20T08:05:42.229Z,0.77
2022-12-20T08:06:42.253Z,0.66
2022-12-20T08:07:42.263Z,0.67
2022-12-20T08:08:42.236Z,0.87
2022-12-20T08:09:42.233Z,1.43
2022-12-20T08:10:42.261Z,1.43
2022-12-20T08:11:42.234Z,1.37
2022-12-20T08:12:42.289Z,1.4
2022-12-20T08:13:46.177Z,1.52
2022-12-20T08:14:42.240Z,1.48
2022-12-20T08:15:42.229Z,1.49
2022-12-20T08:16:42.309Z,0.84
2022-12-20T08:17:42.280Z,0.62
2022-12-20T08:18:42.240Z,0.62
2022-12-20T08:19:42.235Z,0.59
2022-12-20T08:20:42.234Z,0.63
2022-12-20T08:21:42.230Z,0.59
2022-12-20T08:22:42.269Z,0.57
2022-12-20T08:23:42.223Z,0.59
2022-12-20T08:24:42.236Z,0.58
2022-12-20T08:25:42.443Z,0.59
2022-12-20T08:26:42.239Z,0.61
2022-12-20T08:27:42.243Z,0.63
2022-12-20T08:28:42.280Z,0.63
2022-12-20T08:29:42.248Z,0.67
2022-12-20T08:30:42.282Z,0.65
2022-12-20T08:31:49.445Z,0.74
2022-12-20T08:32:42.262Z,0.75
2022-12-20T08:33:42.258Z,0.72
2022-12-20T08:34:42.353Z,0.73
2022-12-20T08:35:42.266Z,0.74
2022-12-20T08:36:42.245Z,1.11
2022-12-20T08:37:42.250Z,0.75
2022-12-20T08:38:42.235Z,0.8
2022-12-20T08:39:42.271Z,0.89
2022-12-20T08:40:42.269Z,0.76
2022-12-20T08:41:42.241Z,0.86
2022-12-20T08:42:42.251Z,0.78
2022-12-20T08:43:42.245Z,0.72
2022-12-20T08:44:42.260Z,0.73
2022-12-20T08:45:42.359Z,0.74
2022-12-20T08:46:42.437Z,0.78
2022-12-20T08:47:42.295Z,0.9
2022-12-20T08:48:42.229Z,1.1
2022-12-20T08:49:47.403Z,2.06
2022-12-20T08:50:42.275Z,2.41
2022-12-20T08:51:42.322Z,2.92
2022-12-20T08:52:42.250Z,3.16
2022-12-20T08:53:42.317Z,3.47
2022-12-20T08:54:42.280Z,3.41
2022-12-20T08:55:42.272Z,2.78
2022-12-20T08:56:42.248Z,2.63
2022-12-20T08:57:42.253Z,2.7
2022-12-20T08:58:42.240Z,3.17
2022-12-20T08:59:42.232Z,3.17
2022-12-20T09:00:42.233Z,3.51
2022-12-20T09:01:42.351Z,2.95
2022-12-20T09:02:42.397Z,1.98
2022-12-20T09:03:42.302Z,1.28
2022-12-20T09:04:42.247Z,1.11
2022-12-20T09:05:42.247Z,1.06
2022-12-20T09:06:42.276Z,1.02
2022-12-20T09:07:42.269Z,1.03
2022-12-20T09:08:42.257Z,1.07
2022-12-20T09:09:42.281Z,1.18
2022-12-20T09:10:42.247Z,1.65
2022-12-20T09:11:42.246Z,3.41
2022-12-20T09:12:42.254Z,3.3
2022-12-20T09:13:44.274Z,2.88
2022-12-20T09:14:42.244Z,3.01
2022-12-20T09:15:42.284Z,3.17
2022-12-20T09:16:42.262Z,2.89
2022-12-20T09:17:42.284Z,3.19
2022-12-20T09:18:42.230Z,3.67
2022-12-20T09:19:42.228Z,4.35
2022-12-20T09:20:42.252Z,4.35
2022-12-20T09:21:42.270Z,4.47
2022-12-20T09:22:42.255Z,4.56
2022-12-20T09:23:42.243Z,4.57
2022-12-20T09:24:42.235Z,4.32
2022-12-20T09:25:42.247Z,4.49
2022-12-20T09:26:42.232Z,4.58
2022-12-20T09:27:42.256Z,4.68
2022-12-20T09:28:42.226Z,4.73
2022-12-20T09:29:42.234Z,4.66
2022-12-20T09:30:42.300Z,4.34
2022-12-20T09:31:42.308Z,4.17
2022-12-20T09:32:42.296Z,4.2
2022-12-20T09:33:42.257Z,3.06
2022-12-20T09:34:42.236Z,3.32
2022-12-20T09:35:42.231Z,3.24
2022-12-20T09:36:42.234Z,2.2
2022-12-20T09:37:42.270Z,2.22
2022-12-20T09:38:42.275Z,2.14
2022-12-20T09:39:42.241Z,1.83
2022-12-20T09:40:42.258Z,2.2
2022-12-20T09:41:42.244Z,2.39
2022-12-20T09:42:42.256Z,2.37
2022-12-20T09:43:42.241Z,2.63
2022-12-20T09:44:42.238Z,2.64
2022-12-20T09:45:42.238Z,3.52
2022-12-20T09:46:42.384Z,3.77
2022-12-20T09:47:42.271Z,4.28
2022-12-20T09:48:42.254Z,2.79
2022-12-20T09:49:42.243Z,3.4
2022-12-20T09:50:42.235Z,3.49
2022-12-20T09:51:42.257Z,2.7
2022-12-20T09:52:42.254Z,2.46
2022-12-20T09:53:42.250Z,2.05
2022-12-20T09:54:42.277Z,1.64
2022-12-20T09:55:42.248Z,1.7
2022-12-20T09:56:42.258Z,1.59
2022-12-20T09:57:42.263Z,1.48
2022-12-20T09:58:42.231Z,1.66
2022-12-20T09:59:47.462Z,1.66
2022-12-20T10:00:42.256Z,1.92
2022-12-20T10:01:42.273Z,1.8
2022-12-20T10:03:42.497Z,1.89
2022-12-20T10:04:42.523Z,1.91
2022-12-20T10:05:42.443Z,1.72
2022-12-20T10:06:42.235Z,1.53
2022-12-20T10:07:42.291Z,1.35
2022-12-20T10:08:42.277Z,1.29
2022-12-20T10:09:42.233Z,1.3
2022-12-20T10:10:42.289Z,1.19
2022-12-20T10:11:49.882Z,1.31
2022-12-20T10:12:42.257Z,1.34
2022-12-20T10:13:42.246Z,1.25
2022-12-20T10:14:42.338Z,1.37
2022-12-20T10:15:42.303Z,1.33
2022-12-20T10:16:42.235Z,1.3
2022-12-20T10:17:42.308Z,1.28
2022-12-20T10:18:42.250Z,1.29
2022-12-20T10:19:42.255Z,1.21
2022-12-20T10:20:42.242Z,1.09
2022-12-20T10:21:42.230Z,1.08
2022-12-20T10:22:42.249Z,1.05
2022-12-20T10:23:42.233Z,1.04
2022-12-20T10:24:42.230Z,1.07
2022-12-20T10:25:42.252Z,1.06
2022-12-20T10:26:42.256Z,1.02
2022-12-20T10:27:42.249Z,0.98
2022-12-20T10:28:42.272Z,0.97
2022-12-20T10:29:42.237Z,0.94
2022-12-20T10:30:42.251Z,0.91
2022-12-20T10:31:42.310Z,0.89
2022-12-20T10:32:42.244Z,0.88
2022-12-20T10:33:42.231Z,0.89
2022-12-20T10:34:46.677Z,0.89
2022-12-20T10:35:42.225Z,0.91
2022-12-20T10:36:42.232Z,0.95
2022-12-20T10:38:06.058Z,1.01
2022-12-20T10:38:42.229Z,1.19
2022-12-20T10:39:42.246Z,1.14
2022-12-20T10:41:42.232Z,1.14
2022-12-20T10:42:42.244Z,1.15
2022-12-20T10:43:42.240Z,1.22
2022-12-20T10:44:42.237Z,1.19
2022-12-20T10:45:42.240Z,1.21
2022-12-20T10:46:42.393Z,1.29
2022-12-20T10:47:42.270Z,1.3
2022-12-20T10:48:42.268Z,1.37
2022-12-20T10:49:42.235Z,1.37
2022-12-20T10:50:42.241Z,1.43
2022-12-20T10:51:42.284Z,1.55
2022-12-20T10:52:42.249Z,1.93
2022-12-20T10:53:42.238Z,1.92
2022-12-20T10:54:42.286Z,4.01
2022-12-20T10:55:42.286Z,2.88
2022-12-20T10:56:42.233Z,1.73
2022-12-20T10:57:42.263Z,1.79
2022-12-20T10:58:42.327Z,1.98
2022-12-20T10:59:42.250Z,1.98
2022-12-20T11:00:42.249Z,2.38
2022-12-20T11:01:42.409Z,1.79
2022-12-20T11:02:42.967Z,1.94
2022-12-20T11:03:42.401Z,1.91
2022-12-20T11:04:42.241Z,3
2022-12-20T11:05:42.236Z,3.13
2022-12-20T11:06:42.230Z,3.09
2022-12-20T11:07:50.437Z,2.54
2022-12-20T11:08:51.187Z,2.14
2022-12-20T11:09:42.231Z,1.81
2022-12-20T11:10:42.263Z,1.6
2022-12-20T11:11:42.240Z,1.4
2022-12-20T11:12:42.255Z,1.37
2022-12-20T11:13:42.232Z,1.32
2022-12-20T11:14:42.246Z,1.26
2022-12-20T11:15:42.276Z,1.12
2022-12-20T11:16:42.305Z,1.2
2022-12-20T11:17:42.268Z,1.16
2022-12-20T11:18:42.256Z,1.02
2022-12-20T11:19:42.232Z,0.95
2022-12-20T11:20:42.257Z,0.91
2022-12-20T11:21:42.243Z,0.92
2022-12-20T11:22:42.308Z,0.87
2022-12-20T11:23:42.251Z,0.85
2022-12-20T11:24:42.235Z,0.85
2022-12-20T11:25:42.249Z,0.89
2022-12-20T11:26:42.240Z,0.91
2022-12-20T11:27:42.260Z,0.96
2022-12-20T11:28:42.271Z,1
2022-12-20T11:29:42.233Z,1.08
2022-12-20T11:30:42.232Z,1.59
2022-12-20T11:31:42.293Z,1.46
2022-12-20T11:32:48.446Z,1.29
2022-12-20T11:33:42.235Z,1.26
2022-12-20T11:34:42.319Z,1.37
2022-12-20T11:35:42.239Z,1.39
2022-12-20T11:36:42.238Z,1.32
2022-12-20T11:37:42.278Z,1.2
2022-12-20T11:38:42.228Z,1.23
2022-12-20T11:39:42.233Z,1.22
2022-12-20T11:40:42.249Z,1.17
2022-12-20T11:41:42.227Z,1.16
2022-12-20T11:42:42.271Z,1.17
2022-12-20T11:44:01.402Z,1.21
2022-12-20T11:44:50.137Z,1.33
2022-12-20T11:45:42.235Z,1.48
2022-12-20T11:46:42.264Z,3.27
2022-12-20T11:47:42.247Z,4.66
2022-12-20T11:48:42.222Z,4.96
2022-12-20T11:49:42.276Z,4.92
2022-12-20T11:50:42.232Z,5.26
2022-12-20T11:51:42.239Z,5.28
2022-12-20T11:52:42.246Z,3.15
2022-12-20T11:53:42.225Z,2.14
2022-12-20T11:54:42.265Z,1.92
2022-12-20T11:55:42.254Z,2.53
2022-12-20T11:56:44.578Z,4.27
2022-12-20T11:58:09.050Z,2.92
2022-12-20T11:58:42.230Z,3.72
2022-12-20T11:59:42.231Z,3.72
2022-12-20T12:00:42.256Z,4.18
2022-12-20T12:01:42.319Z,2.24
2022-12-20T12:02:42.376Z,2.72
2022-12-20T12:03:42.242Z,3.3
2022-12-20T12:04:42.392Z,4.09
2022-12-20T12:05:42.321Z,3.87
2022-12-20T12:06:42.235Z,3.94
2022-12-20T12:07:42.253Z,3.58
2022-12-20T12:08:42.243Z,4.45
2022-12-20T12:09:42.244Z,4.62
2022-12-20T12:10:42.268Z,4.28
2022-12-20T12:12:07.831Z,2.81
2022-12-20T12:12:42.251Z,4.7
2022-12-20T12:13:42.254Z,5.07
2022-12-20T12:14:42.248Z,4.37
2022-12-20T12:15:42.235Z,4.75
2022-12-20T12:16:42.317Z,3.86
2022-12-20T12:17:42.281Z,3.7
2022-12-20T12:18:42.243Z,4.61
2022-12-20T12:19:42.246Z,4.26
2022-12-20T12:20:42.251Z,3.45
2022-12-20T12:21:42.250Z,2.36
2022-12-20T12:22:42.257Z,4.65
2022-12-20T12:23:42.238Z,4.47
2022-12-20T12:24:42.238Z,5.15
2022-12-20T12:25:42.263Z,5.21
2022-12-20T12:26:42.240Z,3.79
2022-12-20T12:27:42.272Z,2.96
2022-12-20T12:28:42.236Z,1.39
2022-12-20T12:29:42.237Z,1.25
2022-12-20T12:30:42.245Z,1.06
2022-12-20T12:31:42.319Z,0.96
2022-12-20T12:32:44.378Z,0.99
2022-12-20T12:33:42.246Z,0.95
2022-12-20T12:34:42.232Z,0.88
2022-12-20T12:35:42.240Z,0.92
2022-12-20T12:36:42.244Z,0.94
2022-12-20T12:37:42.264Z,1.01
2022-12-20T12:38:42.238Z,1.01
2022-12-20T12:39:42.237Z,1.04
2022-12-20T12:40:46.086Z,1.1
2022-12-20T12:41:42.226Z,1.01
2022-12-20T12:42:42.255Z,0.95
2022-12-20T12:43:42.234Z,0.94
2022-12-20T12:44:42.235Z,0.95
2022-12-20T12:45:42.303Z,0.84
2022-12-20T12:46:42.299Z,0.79
2022-12-20T12:47:42.265Z,0.75
2022-12-20T12:48:42.230Z,0.73
2022-12-20T12:49:42.232Z,0.73
2022-12-20T12:50:42.230Z,0.66
2022-12-20T12:51:42.226Z,0.63
2022-12-20T12:52:42.252Z,0.61
2022-12-20T12:53:42.233Z,0.64
2022-12-20T12:54:42.227Z,0.68
2022-12-20T12:55:42.239Z,0.65
2022-12-20T12:56:44.510Z,0.63
2022-12-20T12:57:42.278Z,0.59
2022-12-20T12:58:48.384Z,0.56
2022-12-20T12:59:42.231Z,0.56
2022-12-20T13:00:42.234Z,0.58
2022-12-20T13:01:42.411Z,0.55
2022-12-20T13:02:42.379Z,0.53
2022-12-20T13:03:42.340Z,0.57
2022-12-20T13:04:42.233Z,0.58
2022-12-20T13:05:42.240Z,0.57
2022-12-20T13:06:42.230Z,0.59
2022-12-20T13:07:42.255Z,0.62
2022-12-20T13:08:42.237Z,0.6
2022-12-20T13:09:42.257Z,0.55
2022-12-20T13:10:42.256Z,0.51
2022-12-20T13:11:46.927Z,0.5
2022-12-20T13:12:42.259Z,0.54
2022-12-20T13:13:42.252Z,0.52
2022-12-20T13:14:42.238Z,0.49
2022-12-20T13:15:42.233Z,0.46
2022-12-20T13:17:10.860Z,0.45
2022-12-20T13:17:42.335Z,0.5
2022-12-20T13:18:42.242Z,0.49
2022-12-20T13:19:42.231Z,0.5
2022-12-20T13:20:42.250Z,0.49
2022-12-20T13:21:42.236Z,0.47
2022-12-20T13:22:42.253Z,0.49
2022-12-20T13:23:42.241Z,0.5
2022-12-20T13:24:42.286Z,0.5
2022-12-20T13:25:42.311Z,0.48
2022-12-20T13:26:42.253Z,0.5
2022-12-20T13:27:42.302Z,0.47
2022-12-20T13:28:42.236Z,0.47
2022-12-20T13:29:42.248Z,0.46
2022-12-20T13:30:42.324Z,0.45
2022-12-20T13:31:42.247Z,0.41
2022-12-20T13:32:42.254Z,0.47
2022-12-20T13:33:42.242Z,0.47
2022-12-20T13:34:42.266Z,0.45
2022-12-20T13:35:42.239Z,0.42
2022-12-20T13:36:42.240Z,0.45
2022-12-20T13:37:42.262Z,0.44
2022-12-20T13:38:42.247Z,0.39
2022-12-20T13:39:42.240Z,0.4
2022-12-20T13:40:42.246Z,0.39
2022-12-20T13:41:42.245Z,0.38
2022-12-20T13:42:42.252Z,0.41
2022-12-20T13:43:42.237Z,0.43
2022-12-20T13:44:42.239Z,0.49
2022-12-20T13:45:42.245Z,0.45
2022-12-20T13:46:42.254Z,0.43
2022-12-20T13:47:42.251Z,0.41
2022-12-20T13:48:42.237Z,0.36
2022-12-20T13:49:42.229Z,0.32
2022-12-20T13:50:42.228Z,0.33
2022-12-20T13:51:42.240Z,0.31
2022-12-20T13:52:42.264Z,0.32
2022-12-20T13:53:42.240Z,0.3
2022-12-20T13:54:42.236Z,0.28
2022-12-20T13:55:42.298Z,0.25
2022-12-20T13:56:42.228Z,0.25
2022-12-20T13:57:42.243Z,0.22
2022-12-20T13:58:42.238Z,0.21
2022-12-20T13:59:42.233Z,0.21
2022-12-20T14:00:42.238Z,0.18
2022-12-20T14:01:42.477Z,0.18
2022-12-20T14:02:42.596Z,0.16
2022-12-20T14:03:42.451Z,0.16